Terminal Aerodrome Forecast
Issued by NWS Cleveland, OH

Home | Current Version | Previous Version | Text Only | Print | Product List | Glossary On
Versions: 1 2 3 4 5 6 7 8 9 10 11 12 13 14 15 16 17 18 19 20
668
FTUS41 KCLE 231733
TAFMFD
TAF
KMFD 231733Z 2318/2418 22010G20KT P6SM OVC012
     FM232000 23006KT P6SM OVC025
     FM240000 09004KT 4SM -SHRA BR OVC025
     FM240500 15007KT 4SM BR SCT025
     FM241400 19015G25KT P6SM SCT025=

USA.gov is the U.S. government's official web portal to all federal, state and local government web resources and services.